TimeHST,TemperatureF,Dew PointF,Humidity,Sea Level PressureIn,VisibilityMPH,Wind Direction,Wind SpeedMPH,Gust SpeedMPH,PrecipitationIn,Events,Conditions,WindDirDegrees,DateUTC
12:54 AM,73.0,71.1,93,30.01,10.0,NE,9.2,-,N/A,,Overcast,40,2013-07-22 10:54:00
1:54 AM,73.0,72.0,96,30.00,10.0,North,11.5,-,N/A,,Overcast,10,2013-07-22 11:54:00
2:54 AM,73.0,72.0,96,29.99,10.0,NNE,9.2,-,N/A,,Mostly Cloudy,20,2013-07-22 12:54:00
3:54 AM,72.0,71.1,97,29.99,10.0,North,6.9,-,N/A,,Scattered Clouds,10,2013-07-22 13:54:00
4:54 AM,73.0,72.0,96,29.99,10.0,Variable,6.9,-,N/A,,Scattered Clouds,0,2013-07-22 14:54:00
4:57 AM,73.4,71.6,94,29.98,10.0,NNE,8.1,-,N/A,,Mostly Cloudy,30,2013-07-22 14:57:00
5:21 AM,73.4,71.6,94,29.99,10.0,NNE,4.6,-,0.00,,Overcast,30,2013-07-22 15:21:00
5:29 AM,73.4,71.6,94,29.99,10.0,North,3.5,-,0.00,,Overcast,10,2013-07-22 15:29:00
5:54 AM,72.0,72.0,100,30.00,10.0,North,9.2,-,0.00,,Scattered Clouds,350,2013-07-22 15:54:00
6:54 AM,73.0,73.0,100,30.01,10.0,North,9.2,-,N/A,,Scattered Clouds,350,2013-07-22 16:54:00
7:09 AM,73.4,73.4,100,30.00,10.0,NNE,9.2,-,N/A,,Overcast,20,2013-07-22 17:09:00
7:54 AM,73.9,73.0,97,30.02,10.0,NNE,9.2,-,N/A,,Scattered Clouds,30,2013-07-22 17:54:00
8:54 AM,77.0,69.8,78,30.03,10.0,NNE,8.1,-,N/A,,Scattered Clouds,20,2013-07-22 18:54:00
9:54 AM,79.0,73.0,82,30.03,10.0,NE,9.2,-,N/A,,Scattered Clouds,40,2013-07-22 19:54:00
10:54 AM,75.0,73.9,96,30.03,6.0,NE,8.1,19.6,0.02,Rain,Heavy Rain,50,2013-07-22 20:54:00
11:54 AM,78.1,77.0,96,30.02,6.0,NNE,6.9,-,0.17,,Mostly Cloudy,20,2013-07-22 21:54:00
12:54 PM,-9999,-9999,N/A,30.00,7.0,North,6.9,-,0.08,Rain,Rain,10,2013-07-22 22:54:00
1:01 PM,-9999,-9999,N/A,30.00,5.0,Variable,4.6,-,0.09,Rain,Rain,0,2013-07-22 23:01:00
1:54 PM,-9999,-9999,N/A,29.99,5.0,South,3.5,-,0.15,Rain,Rain,170,2013-07-22 23:54:00
2:10 PM,-9999,-9999,N/A,29.99,10.0,SSW,3.5,-,0.00,Rain,Rain,210,2013-07-23 00:10:00
2:20 PM,-9999,-9999,N/A,29.99,10.0,Calm,Calm,-,0.00,Rain,Rain,0,2013-07-23 00:20:00
2:36 PM,-9999,-9999,N/A,29.98,7.0,South,6.9,-,0.01,Rain,Rain,180,2013-07-23 00:36:00
2:54 PM,78.8,75.0,88,29.98,10.0,SE,6.9,-,0.01,Rain,Rain,140,2013-07-23 00:54:00
3:24 PM,78.8,75.2,89,29.97,10.0,ESE,3.5,-,0.00,Rain,Rain,120,2013-07-23 01:24:00
3:54 PM,79.0,73.9,84,29.97,10.0,South,8.1,-,0.00,Rain,Rain,170,2013-07-23 01:54:00
4:54 PM,78.1,73.0,84,29.97,10.0,South,5.8,-,0.00,Rain,Rain,170,2013-07-23 02:54:00
5:54 PM,78.1,72.0,81,29.98,10.0,South,3.5,-,0.00,,Mostly Cloudy,170,2013-07-23 03:54:00
6:06 PM,77.0,71.6,83,29.98,10.0,Calm,Calm,-,N/A,,Overcast,0,2013-07-23 04:06:00
6:54 PM,75.0,73.9,96,30.00,10.0,NNE,5.8,-,N/A,,Overcast,20,2013-07-23 04:54:00
7:03 PM,75.2,73.4,94,29.99,10.0,NNE,5.8,-,N/A,,Overcast,30,2013-07-23 05:03:00
7:54 PM,73.9,73.0,97,30.01,10.0,NNE,6.9,-,N/A,,Scattered Clouds,30,2013-07-23 05:54:00
8:54 PM,73.0,73.0,100,30.02,10.0,NE,6.9,-,N/A,,Clear,40,2013-07-23 06:54:00
9:54 PM,73.0,73.0,100,30.04,10.0,NE,3.5,-,N/A,,Clear,50,2013-07-23 07:54:00
10:54 PM,72.0,72.0,100,30.04,10.0,NE,3.5,-,N/A,,Clear,50,2013-07-23 08:54:00
11:13 PM,71.6,71.6,100,30.03,10.0,Calm,Calm,-,N/A,,Mostly Cloudy,0,2013-07-23 09:13:00
11:54 PM,72.0,72.0,100,30.03,10.0,East,3.5,-,N/A,,Mostly Cloudy,80,2013-07-23 09:54:00